Time;durP1;ratioP1;P1;durP2;ratioP2;P2;SDS_P1;SDS_P2;PMS_P1;PMS_P2;Temp;Humidity;BMP_temperature;BMP_pressure;BME280_temperature;BME280_humidity;BME280_pressure;Samples;Min_cycle;Max_cycle;Signal;HPM_P1;HPM_P2
2022/07/31 00:02:15;;;;;;;;;;;22.00;62.70;;;;;;6215005;23;1165;-70
2022/07/31 00:04:40;;;;;;;;;;;22.00;62.70;;;;;;6215056;23;1002;-69
2022/07/31 00:07:06;;;;;;;;;;;22.00;62.70;;;;;;6214934;23;1889;-70
2022/07/31 00:09:31;;;;;;;;;;;22.00;62.70;;;;;;6187992;23;855;-70
2022/07/31 00:11:57;;;;;;;;;;;22.00;62.70;;;;;;6216604;23;1203;-71
2022/07/31 00:14:22;;;;;;;;;;;22.00;62.80;;;;;;6190235;23;852;-71
2022/07/31 00:16:48;;;;;;;;;;;22.00;62.70;;;;;;6190086;23;800;-70
2022/07/31 00:19:13;;;;;;;;;;;22.00;62.70;;;;;;6216333;23;832;-71
2022/07/31 00:21:38;;;;;;;;;;;22.00;62.80;;;;;;6216527;23;1186;-71
2022/07/31 00:24:04;;;;;;;;;;;22.00;62.80;;;;;;6216455;23;872;-71
2022/07/31 00:26:29;;;;;;;;;;;22.00;62.80;;;;;;6216987;23;1934;-71
2022/07/31 00:28:55;;;;;;;;;;;22.00;62.80;;;;;;6216224;23;1018;-71
2022/07/31 00:31:20;;;;;;;;;;;22.00;62.80;;;;;;6189740;23;1322;-70
2022/07/31 00:33:46;;;;;;;;;;;22.00;62.90;;;;;;6216751;23;772;-69
2022/07/31 00:36:11;;;;;;;;;;;22.00;62.90;;;;;;6216525;23;836;-70
2022/07/31 00:38:37;;;;;;;;;;;22.00;62.90;;;;;;6216167;23;892;-70
2022/07/31 00:41:02;;;;;;;;;;;22.00;62.90;;;;;;6216393;23;1195;-69
2022/07/31 00:43:28;;;;;;;;;;;22.00;62.90;;;;;;6216558;23;796;-70
2022/07/31 00:45:55;;;;;;;;;;;22.00;62.90;;;;;;6216453;23;785;-70
2022/07/31 00:48:20;;;;;;;;;;;22.00;62.90;;;;;;6216235;23;1897;-70
2022/07/31 00:50:46;;;;;;;;;;;22.00;63.00;;;;;;6216354;23;1196;-71
2022/07/31 00:53:11;;;;;;;;;;;22.00;63.00;;;;;;6216184;23;853;-71
2022/07/31 00:55:37;;;;;;;;;;;22.00;63.00;;;;;;6216340;23;851;-71
2022/07/31 00:58:03;;;;;;;;;;;22.00;63.00;;;;;;6216155;23;867;-71
2022/07/31 01:00:28;;;;;;;;;;;22.00;63.10;;;;;;6189620;23;1296;-71
2022/07/31 01:02:54;;;;;;;;;;;22.00;63.00;;;;;;6216383;23;1014;-71
2022/07/31 01:05:19;;;;;;;;;;;22.00;63.00;;;;;;6189547;23;2297;-71
2022/07/31 01:07:45;;;;;;;;;;;22.00;63.10;;;;;;6215875;23;1936;-71
2022/07/31 01:10:12;;;;;;;;;;;22.00;63.10;;;;;;6189706;23;828;-71
2022/07/31 01:12:38;;;;;;;;;;;22.00;63.10;;;;;;6189609;23;1245;-71
2022/07/31 01:15:04;;;;;;;;;;;22.00;63.10;;;;;;6215987;23;1021;-70
2022/07/31 01:17:30;;;;;;;;;;;22.00;63.10;;;;;;6189630;23;807;-70
2022/07/31 01:19:55;;;;;;;;;;;22.00;63.10;;;;;;6164364;23;1393;-70
2022/07/31 01:22:21;;;;;;;;;;;22.00;63.10;;;;;;6189356;23;1191;-70
2022/07/31 01:24:52;;;;;;;;;;;22.00;63.20;;;;;;6215927;23;1258;-70
2022/07/31 01:27:18;;;;;;;;;;;22.00;63.20;;;;;;6189551;23;1889;-70
2022/07/31 01:29:45;;;;;;;;;;;22.00;63.20;;;;;;6189115;23;2031;-70
2022/07/31 01:32:14;;;;;;;;;;;22.00;63.20;;;;;;6164273;23;1351;-70
2022/07/31 01:34:47;;;;;;;;;;;22.00;63.20;;;;;;6164319;23;1240;-70
2022/07/31 01:37:13;;;;;;;;;;;22.00;63.20;;;;;;6189371;23;911;-70
2022/07/31 01:39:40;;;;;;;;;;;22.00;63.30;;;;;;6189336;23;1056;-70
2022/07/31 01:42:05;;;;;;;;;;;22.00;63.20;;;;;;6189268;23;1281;-70
2022/07/31 01:44:33;;;;;;;;;;;22.00;63.30;;;;;;6189298;23;772;-70
2022/07/31 01:46:59;;;;;;;;;;;22.00;63.30;;;;;;6215351;23;1901;-71
2022/07/31 01:49:25;;;;;;;;;;;22.00;63.30;;;;;;6188703;23;797;-72
2022/07/31 01:51:50;;;;;;;;;;;22.00;63.30;;;;;;6188764;23;1363;-71
2022/07/31 01:54:17;;;;;;;;;;;22.00;63.30;;;;;;6189070;23;791;-70
2022/07/31 01:56:42;;;;;;;;;;;22.00;63.30;;;;;;6215501;23;799;-70
2022/07/31 01:59:09;;;;;;;;;;;22.00;63.40;;;;;;6188996;23;847;-70
2022/07/31 02:01:34;;;;;;;;;;;22.00;63.40;;;;;;6215532;23;1295;-70
2022/07/31 02:04:00;;;;;;;;;;;22.00;63.40;;;;;;6188856;23;1188;-70
2022/07/31 02:06:25;;;;;;;;;;;22.00;63.40;;;;;;6215436;23;1888;-70
2022/07/31 02:08:51;;;;;;;;;;;22.00;63.40;;;;;;6215270;23;1037;-70
2022/07/31 02:11:17;;;;;;;;;;;22.00;63.40;;;;;;6188916;23;1304;-70
2022/07/31 02:13:43;;;;;;;;;;;22.00;63.40;;;;;;6215716;23;862;-70
2022/07/31 02:16:08;;;;;;;;;;;22.00;63.40;;;;;;6214376;23;1029;-69
2022/07/31 02:18:34;;;;;;;;;;;22.00;63.40;;;;;;6188275;23;816;-70
2022/07/31 02:20:59;;;;;;;;;;;22.00;63.50;;;;;;6188582;23;1285;-70
2022/07/31 02:23:24;;;;;;;;;;;22.00;63.50;;;;;;6188704;23;1070;-70
2022/07/31 02:25:50;;;;;;;;;;;22.00;63.40;;;;;;6188130;23;1011;-70
2022/07/31 02:28:18;;;;;;;;;;;22.00;63.50;;;;;;6188397;23;1877;-70
2022/07/31 02:30:43;;;;;;;;;;;22.00;63.50;;;;;;6188384;23;1297;-70
2022/07/31 02:33:10;;;;;;;;;;;22.00;63.50;;;;;;6188675;23;821;-70
2022/07/31 02:35:36;;;;;;;;;;;22.00;63.50;;;;;;6188907;23;892;-70
2022/07/31 02:38:02;;;;;;;;;;;22.00;63.50;;;;;;6215123;23;1046;-70
2022/07/31 02:40:27;;;;;;;;;;;22.00;63.50;;;;;;6188740;23;1259;-70
2022/07/31 02:42:53;;;;;;;;;;;22.00;63.50;;;;;;6188373;23;991;-70
2022/07/31 02:45:18;;;;;;;;;;;22.00;63.50;;;;;;6188805;23;864;-70
2022/07/31 02:47:44;;;;;;;;;;;22.00;63.50;;;;;;6188341;23;1940;-70
2022/07/31 02:50:09;;;;;;;;;;;22.00;63.60;;;;;;6215071;23;892;-70
2022/07/31 02:52:35;;;;;;;;;;;22.00;63.60;;;;;;6188770;23;1259;-70
2022/07/31 02:55:00;;;;;;;;;;;22.00;63.60;;;;;;6215596;23;848;-70
2022/07/31 02:57:26;;;;;;;;;;;22.00;63.60;;;;;;6188653;23;891;-70
2022/07/31 02:59:51;;;;;;;;;;;22.00;63.60;;;;;;6188604;23;1022;-70
2022/07/31 03:02:16;;;;;;;;;;;22.00;63.60;;;;;;6215015;23;1276;-70
2022/07/31 03:04:42;;;;;;;;;;;22.00;63.60;;;;;;6215097;23;797;-70
2022/07/31 03:07:08;;;;;;;;;;;22.00;63.60;;;;;;6214944;23;1889;-70
2022/07/31 03:09:33;;;;;;;;;;;22.00;63.60;;;;;;6214975;23;827;-70
2022/07/31 03:11:59;;;;;;;;;;;22.00;63.70;;;;;;6214904;23;1198;-70
2022/07/31 03:14:24;;;;;;;;;;;22.00;63.70;;;;;;6188579;23;942;-70
2022/07/31 03:16:50;;;;;;;;;;;22.00;63.70;;;;;;6188359;23;1042;-70
2022/07/31 03:19:16;;;;;;;;;;;22.00;63.70;;;;;;6188117;23;1077;-70
2022/07/31 03:21:41;;;;;;;;;;;22.00;63.70;;;;;;6188755;23;1304;-70
2022/07/31 03:24:07;;;;;;;;;;;22.00;63.70;;;;;;6215180;23;835;-70
2022/07/31 03:26:32;;;;;;;;;;;22.00;63.70;;;;;;6215170;23;1881;-70
2022/07/31 03:29:00;;;;;;;;;;;21.90;63.70;;;;;;6215002;23;839;-70
2022/07/31 03:31:26;;;;;;;;;;;22.00;63.70;;;;;;6214370;23;3578;-70
2022/07/31 03:33:51;;;;;;;;;;;22.00;63.80;;;;;;6188265;23;977;-70
2022/07/31 03:36:17;;;;;;;;;;;22.00;63.80;;;;;;6188402;23;1001;-69
2022/07/31 03:38:42;;;;;;;;;;;22.00;63.80;;;;;;6214856;23;765;-70
2022/07/31 03:41:08;;;;;;;;;;;22.00;63.80;;;;;;6188269;23;1216;-70
2022/07/31 03:43:33;;;;;;;;;;;22.00;63.80;;;;;;6215072;23;776;-70
2022/07/31 03:45:59;;;;;;;;;;;22.00;63.80;;;;;;6189515;23;1049;-69
2022/07/31 03:48:25;;;;;;;;;;;22.00;63.80;;;;;;6216335;23;1889;-69
2022/07/31 03:50:50;;;;;;;;;;;22.00;63.90;;;;;;6190236;23;1210;-69
2022/07/31 03:53:16;;;;;;;;;;;22.00;63.90;;;;;;6190321;23;900;-71
2022/07/31 03:55:42;;;;;;;;;;;22.00;63.90;;;;;;6190371;23;1021;-68
2022/07/31 03:58:08;;;;;;;;;;;22.00;63.90;;;;;;6160859;23;1330;-68
2022/07/31 04:00:33;;;;;;;;;;;22.00;64.70;;;;;;6216102;23;812;-69
2022/07/31 04:03:03;;;;;;;;;;;22.00;64.00;;;;;;6189662;23;1281;-68
2022/07/31 04:05:28;;;;;;;;;;;22.00;64.00;;;;;;6217002;23;1137;-70
2022/07/31 04:07:53;;;;;;;;;;;22.00;64.00;;;;;;6216336;23;1888;-68
2022/07/31 04:10:19;;;;;;;;;;;22.00;64.00;;;;;;6216620;23;690;-69
2022/07/31 04:12:44;;;;;;;;;;;22.00;64.00;;;;;;6189829;23;1544;-69
2022/07/31 04:15:10;;;;;;;;;;;22.00;64.00;;;;;;6216732;23;796;-69
2022/07/31 04:17:35;;;;;;;;;;;22.00;64.10;;;;;;6216108;23;919;-68
2022/07/31 04:20:01;;;;;;;;;;;22.00;64.00;;;;;;6190054;23;1392;-69
2022/07/31 04:22:26;;;;;;;;;;;22.00;64.00;;;;;;6216500;23;1651;-69
2022/07/31 04:24:51;;;;;;;;;;;22.00;64.10;;;;;;6216807;23;765;-68
2022/07/31 04:27:17;;;;;;;;;;;22.00;64.10;;;;;;6214929;23;1924;-68
2022/07/31 04:29:45;;;;;;;;;;;22.00;64.10;;;;;;6216323;23;867;-68
2022/07/31 04:32:11;;;;;;;;;;;22.00;64.10;;;;;;6216005;23;1313;-68
2022/07/31 04:34:36;;;;;;;;;;;22.00;64.10;;;;;;6216769;23;871;-69
2022/07/31 04:37:02;;;;;;;;;;;22.00;64.10;;;;;;6190031;23;945;-70
2022/07/31 04:39:27;;;;;;;;;;;22.00;64.10;;;;;;6216357;23;797;-69
2022/07/31 04:41:53;;;;;;;;;;;22.00;64.10;;;;;;6189943;23;1212;-68
2022/07/31 04:44:19;;;;;;;;;;;22.00;64.10;;;;;;6216473;23;756;-69
2022/07/31 04:46:45;;;;;;;;;;;22.00;64.10;;;;;;6216188;23;1940;-70
2022/07/31 04:49:13;;;;;;;;;;;22.00;64.10;;;;;;6189712;23;924;-71
2022/07/31 04:51:38;;;;;;;;;;;22.00;64.20;;;;;;6190295;23;1195;-70
2022/07/31 04:54:04;;;;;;;;;;;22.00;64.20;;;;;;6216356;23;792;-70
2022/07/31 04:56:32;;;;;;;;;;;22.00;64.20;;;;;;6216030;23;1048;-70
2022/07/31 04:59:02;;;;;;;;;;;22.00;64.20;;;;;;6216304;23;796;-70
2022/07/31 05:01:27;;;;;;;;;;;22.00;64.20;;;;;;6216666;23;1329;-70
2022/07/31 05:03:53;;;;;;;;;;;22.00;64.20;;;;;;6189779;23;1002;-70
2022/07/31 05:06:18;;;;;;;;;;;22.00;64.20;;;;;;6216538;23;1889;-71
2022/07/31 05:08:44;;;;;;;;;;;22.00;64.20;;;;;;6214620;23;864;-69
2022/07/31 05:11:21;;;;;;;;;;;22.00;64.20;;;;;;6216190;23;1257;-69
2022/07/31 05:13:53;;;;;;;;;;;22.00;64.20;;;;;;6215298;23;923;-68
2022/07/31 05:16:19;;;;;;;;;;;22.00;64.20;;;;;;6189665;23;1074;-68
2022/07/31 05:18:44;;;;;;;;;;;22.00;64.20;;;;;;6215013;23;910;-69
2022/07/31 05:21:10;;;;;;;;;;;22.00;64.20;;;;;;6189480;23;1178;-69
2022/07/31 05:23:36;;;;;;;;;;;22.00;64.30;;;;;;6216132;23;837;-69
2022/07/31 05:26:02;;;;;;;;;;;22.00;64.30;;;;;;6216155;23;1037;-68
2022/07/31 05:28:27;;;;;;;;;;;22.00;64.30;;;;;;6215883;23;1922;-70
2022/07/31 05:30:53;;;;;;;;;;;22.00;64.30;;;;;;6215969;23;1257;-69
2022/07/31 05:33:18;;;;;;;;;;;22.00;64.30;;;;;;6189608;23;892;-69
2022/07/31 05:35:44;;;;;;;;;;;22.00;64.30;;;;;;6215912;23;823;-70
2022/07/31 05:38:09;;;;;;;;;;;22.00;64.30;;;;;;6189229;23;867;-69
2022/07/31 05:40:34;;;;;;;;;;;22.00;64.30;;;;;;6216110;23;788;-69
2022/07/31 05:43:00;;;;;;;;;;;21.90;64.20;;;;;;6216024;23;1191;-69
2022/07/31 05:45:25;;;;;;;;;;;22.00;64.30;;;;;;6216012;23;1045;-69
2022/07/31 05:47:51;;;;;;;;;;;22.00;64.30;;;;;;6216124;23;1892;-69
2022/07/31 05:50:16;;;;;;;;;;;22.00;64.30;;;;;;6215750;23;800;-70
2022/07/31 05:52:42;;;;;;;;;;;22.00;64.40;;;;;;6216022;23;1214;-69
2022/07/31 05:55:07;;;;;;;;;;;22.00;64.40;;;;;;6215884;23;922;-69
2022/07/31 05:57:33;;;;;;;;;;;22.00;64.40;;;;;;6215941;23;819;-70
2022/07/31 05:59:58;;;;;;;;;;;21.90;64.30;;;;;;6215740;23;922;-69
2022/07/31 06:02:24;;;;;;;;;;;22.00;64.60;;;;;;6215616;23;1178;-70
2022/07/31 06:04:49;;;;;;;;;;;22.00;64.40;;;;;;6215829;23;887;-69
2022/07/31 06:07:14;;;;;;;;;;;22.00;64.40;;;;;;6215617;23;1889;-68
2022/07/31 06:09:40;;;;;;;;;;;22.00;64.40;;;;;;6188949;23;904;-69
2022/07/31 06:12:05;;;;;;;;;;;22.00;64.40;;;;;;6215434;23;1254;-69
2022/07/31 06:14:31;;;;;;;;;;;21.90;64.40;;;;;;6216056;23;903;-70
2022/07/31 06:16:56;;;;;;;;;;;21.90;64.40;;;;;;6215783;23;836;-69
2022/07/31 06:19:22;;;;;;;;;;;21.90;64.40;;;;;;6189020;23;845;-69
2022/07/31 06:21:48;;;;;;;;;;;22.00;64.50;;;;;;6215538;23;1193;-69
2022/07/31 06:24:14;;;;;;;;;;;21.90;64.40;;;;;;6215751;23;870;-69
2022/07/31 06:26:39;;;;;;;;;;;21.90;64.40;;;;;;6184581;23;1893;-69
2022/07/31 06:29:04;;;;;;;;;;;22.00;64.50;;;;;;6214855;23;793;-68
2022/07/31 06:31:30;;;;;;;;;;;22.00;64.50;;;;;;6215198;23;1183;-68
2022/07/31 06:33:55;;;;;;;;;;;22.00;64.50;;;;;;6215589;23;828;-68
2022/07/31 06:39:28;;;;;;;;;;;22.00;64.50;;;;;;6065034;23;1196;-67
2022/07/31 06:41:54;;;;;;;;;;;21.90;64.50;;;;;;6189066;23;1308;-67
2022/07/31 06:44:19;;;;;;;;;;;21.90;64.50;;;;;;6215530;23;1010;-67
2022/07/31 06:46:45;;;;;;;;;;;21.90;64.50;;;;;;6215427;23;2334;-69
2022/07/31 06:49:10;;;;;;;;;;;21.90;64.50;;;;;;6215311;23;846;-69
2022/07/31 06:51:36;;;;;;;;;;;21.90;64.50;;;;;;6188474;23;1386;-69
2022/07/31 06:54:02;;;;;;;;;;;21.90;65.30;;;;;;6215704;23;702;-70
2022/07/31 06:56:28;;;;;;;;;;;22.00;64.60;;;;;;6215155;23;1049;-69
2022/07/31 06:58:54;;;;;;;;;;;21.90;64.50;;;;;;6214474;23;755;-69
2022/07/31 07:01:19;;;;;;;;;;;21.90;64.60;;;;;;6188309;23;1275;-69
2022/07/31 07:03:45;;;;;;;;;;;21.90;64.50;;;;;;6188551;23;1033;-69
2022/07/31 07:06:10;;;;;;;;;;;21.90;64.50;;;;;;6188472;23;828;-69
2022/07/31 07:08:36;;;;;;;;;;;21.90;64.50;;;;;;6188347;23;1881;-69
2022/07/31 07:11:01;;;;;;;;;;;21.90;64.60;;;;;;6188930;23;1277;-70
2022/07/31 07:13:27;;;;;;;;;;;21.90;64.60;;;;;;6188780;23;769;-69
2022/07/31 07:15:52;;;;;;;;;;;21.90;64.60;;;;;;6216372;23;804;-69
2022/07/31 07:18:20;;;;;;;;;;;21.90;64.60;;;;;;6188412;23;1105;-70
2022/07/31 07:20:49;;;;;;;;;;;21.90;64.60;;;;;;6165898;23;1054;-70
2022/07/31 07:23:14;;;;;;;;;;;21.90;64.60;;;;;;6190771;23;1191;-69
2022/07/31 07:25:40;;;;;;;;;;;21.90;64.60;;;;;;6190842;23;828;-70
2022/07/31 07:28:06;;;;;;;;;;;21.90;64.60;;;;;;6190142;23;1885;-69
2022/07/31 07:30:31;;;;;;;;;;;21.90;64.60;;;;;;6190885;23;1034;-69
2022/07/31 07:32:57;;;;;;;;;;;21.90;64.70;;;;;;6190221;23;1265;-69
2022/07/31 07:35:23;;;;;;;;;;;21.90;64.70;;;;;;6217252;23;828;-69
2022/07/31 07:37:48;;;;;;;;;;;21.90;64.70;;;;;;6216726;23;1061;-70
2022/07/31 07:40:15;;;;;;;;;;;21.90;64.70;;;;;;6190808;23;840;-69
2022/07/31 07:42:41;;;;;;;;;;;21.90;64.70;;;;;;6190283;23;1200;-70
2022/07/31 07:45:09;;;;;;;;;;;21.90;64.70;;;;;;6216903;23;823;-68
2022/07/31 07:50:32;;;;;;;;;;;21.90;64.70;;;;;;6216228;23;1209;-70
2022/07/31 07:53:03;;;;;;;;;;;21.90;64.80;;;;;;6189503;23;1182;-69
2022/07/31 07:55:29;;;;;;;;;;;21.90;64.70;;;;;;6189525;23;1139;-71
2022/07/31 07:57:54;;;;;;;;;;;21.90;64.70;;;;;;6215911;23;907;-69
2022/07/31 08:00:20;;;;;;;;;;;21.90;64.70;;;;;;6189667;23;1014;-70
2022/07/31 08:02:45;;;;;;;;;;;21.90;64.80;;;;;;6189671;23;1264;-70
2022/07/31 08:05:11;;;;;;;;;;;21.90;64.80;;;;;;6190240;23;776;-69
2022/07/31 08:07:37;;;;;;;;;;;21.90;64.80;;;;;;6216154;23;1933;-70
2022/07/31 08:10:03;;;;;;;;;;;21.90;64.80;;;;;;6216259;23;840;-69
2022/07/31 08:12:28;;;;;;;;;;;21.90;64.80;;;;;;6215741;23;1202;-70
2022/07/31 08:14:54;;;;;;;;;;;21.90;64.80;;;;;;6215948;23;891;-70
2022/07/31 08:17:19;;;;;;;;;;;21.90;64.80;;;;;;6215316;23;1054;-70
2022/07/31 08:19:45;;;;;;;;;;;21.90;64.80;;;;;;6215576;23;1042;-69
2022/07/31 08:22:10;;;;;;;;;;;21.90;64.80;;;;;;6189235;23;1278;-68
2022/07/31 08:24:36;;;;;;;;;;;21.90;64.80;;;;;;6215866;23;1226;-68
2022/07/31 08:29:45;;;;;;;;;;;21.90;64.80;;;;;;6216080;23;647;-61
2022/07/31 08:34:46;;;;;;;;;;;22.00;64.80;;;;;;6186909;23;1571;-70
2022/07/31 08:37:12;;;;;;;;;;;22.00;64.70;;;;;;6211079;23;836;-67
2022/07/31 08:39:37;;;;;;;;;;;22.00;64.60;;;;;;6214190;23;1219;-65
2022/07/31 08:42:03;;;;;;;;;;;22.00;64.50;;;;;;6188064;23;764;-66
2022/07/31 08:44:29;;;;;;;;;;;22.10;64.50;;;;;;6187815;23;1212;-67
2022/07/31 08:46:54;;;;;;;;;;;22.10;64.40;;;;;;6188464;23;1893;-67
2022/07/31 08:49:19;;;;;;;;;;;22.10;65.10;;;;;;6215569;23;833;-68
2022/07/31 08:51:45;;;;;;;;;;;22.10;64.30;;;;;;6215255;23;759;-64
2022/07/31 08:54:10;;;;;;;;;;;22.10;64.30;;;;;;6186288;23;1203;-63
2022/07/31 08:56:36;;;;;;;;;;;22.20;64.30;;;;;;6214928;23;820;-64
2022/07/31 08:59:02;;;;;;;;;;;22.20;64.20;;;;;;6214612;23;926;-65
2022/07/31 09:01:28;;;;;;;;;;;22.20;64.00;;;;;;6187772;23;907;-65
2022/07/31 09:03:53;;;;;;;;;;;22.20;63.80;;;;;;6187768;23;926;-63
2022/07/31 09:06:18;;;;;;;;;;;22.20;64.20;;;;;;6188203;23;1885;-63
2022/07/31 09:08:44;;;;;;;;;;;22.30;63.10;;;;;;6214216;23;1006;-64
2022/07/31 09:11:11;;;;;;;;;;;22.20;63.10;;;;;;6215116;23;779;-64
2022/07/31 09:13:36;;;;;;;;;;;22.30;63.40;;;;;;6188049;23;813;-65
2022/07/31 09:16:02;;;;;;;;;;;22.30;63.20;;;;;;6214847;23;1191;-65
2022/07/31 09:18:27;;;;;;;;;;;22.30;63.10;;;;;;6215181;23;764;-65
2022/07/31 09:20:54;;;;;;;;;;;22.30;63.10;;;;;;6214959;23;856;-66
2022/07/31 09:23:20;;;;;;;;;;;22.30;62.90;;;;;;6188552;23;827;-65
2022/07/31 09:25:55;;;;;;;;;;;22.30;62.80;;;;;;6214181;23;1206;-65
2022/07/31 09:28:30;;;;;;;;;;;22.30;62.70;;;;;;6214126;23;1936;-65
2022/07/31 09:30:55;;;;;;;;;;;22.30;62.90;;;;;;6187797;23;855;-65
2022/07/31 09:33:21;;;;;;;;;;;22.30;62.90;;;;;;6215555;23;791;-65
2022/07/31 09:35:47;;;;;;;;;;;22.30;62.90;;;;;;6214298;23;1285;-66
2022/07/31 09:38:12;;;;;;;;;;;22.40;63.00;;;;;;6214730;23;832;-64
2022/07/31 09:40:42;;;;;;;;;;;22.40;63.10;;;;;;6187962;23;915;-67
2022/07/31 09:43:14;;;;;;;;;;;22.40;63.40;;;;;;6215398;23;864;-65
2022/07/31 09:45:39;;;;;;;;;;;22.40;63.90;;;;;;6214620;23;1275;-65
2022/07/31 09:48:07;;;;;;;;;;;22.40;63.40;;;;;;6189070;23;1918;-66
2022/07/31 09:50:32;;;;;;;;;;;22.40;62.90;;;;;;6188843;23;808;-65
2022/07/31 09:52:58;;;;;;;;;;;22.40;62.80;;;;;;6215459;23;911;-65
2022/07/31 09:55:24;;;;;;;;;;;22.40;62.70;;;;;;6187881;23;1261;-65
2022/07/31 09:57:53;;;;;;;;;;;22.40;63.60;;;;;;6214857;23;899;-65
2022/07/31 10:00:18;;;;;;;;;;;22.40;62.80;;;;;;6214945;23;808;-66
2022/07/31 10:02:44;;;;;;;;;;;22.50;62.60;;;;;;6215400;23;934;-65
2022/07/31 10:05:09;;;;;;;;;;;22.50;62.40;;;;;;6215200;23;1186;-65
2022/07/31 10:07:35;;;;;;;;;;;22.50;61.90;;;;;;6215095;23;1934;-65
2022/07/31 10:10:01;;;;;;;;;;;22.50;61.80;;;;;;6215456;23;883;-65
2022/07/31 10:12:27;;;;;;;;;;;22.50;61.50;;;;;;6188839;23;813;-65
2022/07/31 10:14:52;;;;;;;;;;;22.50;61.80;;;;;;6187387;23;1275;-64
2022/07/31 10:17:19;;;;;;;;;;;22.60;61.80;;;;;;6187926;23;1014;-66
2022/07/31 10:19:45;;;;;;;;;;;22.50;61.90;;;;;;6188605;23;776;-67
2022/07/31 10:22:11;;;;;;;;;;;22.50;62.10;;;;;;6188775;23;757;-65
2022/07/31 10:24:39;;;;;;;;;;;22.50;61.90;;;;;;6214800;23;1197;-65
2022/07/31 10:27:04;;;;;;;;;;;22.60;62.10;;;;;;6215076;23;1932;-64
2022/07/31 10:29:30;;;;;;;;;;;22.50;61.80;;;;;;6188415;23;867;-66
2022/07/31 10:31:55;;;;;;;;;;;22.60;61.80;;;;;;6214834;23;926;-65
2022/07/31 10:34:20;;;;;;;;;;;22.60;62.00;;;;;;6187244;23;1198;-65
2022/07/31 10:36:47;;;;;;;;;;;22.60;62.20;;;;;;6214170;23;941;-65
2022/07/31 10:39:15;;;;;;;;;;;22.60;62.20;;;;;;6188341;23;815;-66
2022/07/31 10:41:45;;;;;;;;;;;22.50;61.90;;;;;;6214590;23;831;-64
2022/07/31 10:44:11;;;;;;;;;;;22.50;62.00;;;;;;6188324;23;1290;-65
2022/07/31 10:46:37;;;;;;;;;;;22.50;62.00;;;;;;6188095;23;1952;-63
2022/07/31 10:49:02;;;;;;;;;;;22.50;61.30;;;;;;6215037;23;832;-64
2022/07/31 10:51:28;;;;;;;;;;;22.60;60.70;;;;;;6215032;23;920;-64
2022/07/31 10:53:57;;;;;;;;;;;22.60;60.50;;;;;;6187962;23;895;-64
2022/07/31 10:56:23;;;;;;;;;;;22.60;60.60;;;;;;6213563;23;1180;-65
2022/07/31 10:58:49;;;;;;;;;;;22.60;61.40;;;;;;6188256;23;839;-67
2022/07/31 11:01:14;;;;;;;;;;;22.60;61.30;;;;;;6215147;23;814;-66
2022/07/31 11:03:43;;;;;;;;;;;22.60;61.20;;;;;;6214765;23;891;-64
2022/07/31 11:06:08;;;;;;;;;;;22.60;61.10;;;;;;6187935;23;1167;-64
2022/07/31 11:08:43;;;;;;;;;;;22.60;60.50;;;;;;6214486;23;2283;-63
2022/07/31 11:11:09;;;;;;;;;;;22.60;60.50;;;;;;6214178;23;816;-64
2022/07/31 11:13:50;;;;;;;;;;;22.60;60.80;;;;;;6215039;23;819;-64
2022/07/31 11:16:16;;;;;;;;;;;22.60;60.80;;;;;;6187599;23;1194;-65
2022/07/31 11:18:41;;;;;;;;;;;22.60;61.00;;;;;;6214464;23;978;-66
2022/07/31 11:21:07;;;;;;;;;;;22.60;61.30;;;;;;6187790;23;816;-65
2022/07/31 11:23:33;;;;;;;;;;;22.60;61.30;;;;;;6214261;23;870;-65
2022/07/31 11:26:02;;;;;;;;;;;22.60;61.20;;;;;;6214876;23;1187;-64
2022/07/31 11:28:28;;;;;;;;;;;22.60;61.10;;;;;;6188238;23;1943;-65
2022/07/31 11:30:54;;;;;;;;;;;22.60;61.20;;;;;;6214811;23;824;-67
2022/07/31 11:33:27;;;;;;;;;;;22.60;61.50;;;;;;6188233;23;788;-66
2022/07/31 11:35:52;;;;;;;;;;;22.60;61.90;;;;;;6187382;23;1314;-67
2022/07/31 11:38:17;;;;;;;;;;;22.60;61.80;;;;;;6214266;23;1033;-67
2022/07/31 11:40:47;;;;;;;;;;;22.60;61.80;;;;;;6214675;23;804;-66
2022/07/31 11:43:13;;;;;;;;;;;22.60;61.80;;;;;;6188116;23;800;-67
2022/07/31 11:45:45;;;;;;;;;;;22.60;62.30;;;;;;6213749;23;1290;-66
2022/07/31 11:48:13;;;;;;;;;;;22.60;61.50;;;;;;6187755;23;1940;-66
2022/07/31 11:50:41;;;;;;;;;;;22.60;62.00;;;;;;6214118;23;1057;-67
2022/07/31 12:11:15;;;;;;;;;;;22.50;62.40;;;;;;6189074;23;1730;-65
2022/07/31 12:13:43;;;;;;;;;;;22.50;62.20;;;;;;6213536;23;965;-64
2022/07/31 12:16:09;;;;;;;;;;;22.50;61.90;;;;;;6215901;23;1166;-67
2022/07/31 12:18:43;;;;;;;;;;;22.50;62.20;;;;;;6190365;23;1083;-66
2022/07/31 12:21:09;;;;;;;;;;;22.50;62.20;;;;;;6215876;23;1218;-67
2022/07/31 12:23:38;;;;;;;;;;;22.50;62.30;;;;;;6190554;23;911;-69
2022/07/31 12:26:03;;;;;;;;;;;22.50;63.20;;;;;;6216423;23;835;-69
2022/07/31 12:28:29;;;;;;;;;;;22.50;62.20;;;;;;6190479;23;1946;-72
2022/07/31 12:30:57;;;;;;;;;;;22.50;62.50;;;;;;6215730;23;1196;-70
2022/07/31 12:33:23;;;;;;;;;;;22.50;62.70;;;;;;6165207;23;1282;-70
2022/07/31 12:35:48;;;;;;;;;;;22.50;62.90;;;;;;6216270;23;859;-70
2022/07/31 12:38:21;;;;;;;;;;;22.50;62.80;;;;;;6190079;23;1065;-70
2022/07/31 12:40:47;;;;;;;;;;;22.50;62.70;;;;;;6189427;23;1669;-69
2022/07/31 12:43:12;;;;;;;;;;;22.50;62.40;;;;;;6216523;23;776;-69
2022/07/31 12:45:38;;;;;;;;;;;22.50;62.20;;;;;;6189787;23;792;-69
2022/07/31 12:48:04;;;;;;;;;;;22.40;62.60;;;;;;6189780;23;1889;-69
2022/07/31 12:50:30;;;;;;;;;;;22.40;62.70;;;;;;6163618;23;1224;-70
2022/07/31 12:52:56;;;;;;;;;;;22.40;62.60;;;;;;6175024;23;820;-70
2022/07/31 12:55:21;;;;;;;;;;;22.40;62.80;;;;;;6213647;23;783;-70
2022/07/31 12:57:47;;;;;;;;;;;22.40;62.80;;;;;;6188512;23;773;-69
2022/07/31 13:00:13;;;;;;;;;;;22.40;62.80;;;;;;6215655;23;1138;-69
2022/07/31 13:02:38;;;;;;;;;;;22.40;62.40;;;;;;6216182;23;788;-70
2022/07/31 13:05:04;;;;;;;;;;;22.40;62.10;;;;;;6216326;23;832;-70
2022/07/31 13:07:29;;;;;;;;;;;22.40;61.90;;;;;;6189197;23;1931;-70
2022/07/31 13:09:55;;;;;;;;;;;22.40;62.00;;;;;;6214376;23;824;-69
2022/07/31 13:12:20;;;;;;;;;;;22.40;62.00;;;;;;6214789;23;1314;-69
2022/07/31 13:14:45;;;;;;;;;;;22.50;62.10;;;;;;6216354;23;907;-69
2022/07/31 13:17:11;;;;;;;;;;;22.50;62.20;;;;;;6215285;23;883;-69
2022/07/31 13:19:36;;;;;;;;;;;22.50;61.40;;;;;;6188397;23;804;-69
2022/07/31 13:22:02;;;;;;;;;;;22.50;61.90;;;;;;6187145;23;1220;-70
2022/07/31 13:24:27;;;;;;;;;;;22.50;61.70;;;;;;6216217;23;1022;-69
2022/07/31 13:26:53;;;;;;;;;;;22.50;61.70;;;;;;6215265;23;1943;-70
2022/07/31 13:29:19;;;;;;;;;;;22.50;62.20;;;;;;6187934;23;1074;-70
2022/07/31 13:31:45;;;;;;;;;;;22.50;62.00;;;;;;6189473;23;1273;-70
2022/07/31 13:34:10;;;;;;;;;;;22.50;62.30;;;;;;6215953;23;792;-69
2022/07/31 13:36:36;;;;;;;;;;;22.50;62.20;;;;;;6189509;23;797;-69
2022/07/31 13:39:01;;;;;;;;;;;22.50;62.20;;;;;;6215864;23;902;-70
2022/07/31 13:41:27;;;;;;;;;;;22.50;61.80;;;;;;6189123;23;1219;-69
2022/07/31 13:43:53;;;;;;;;;;;22.40;61.80;;;;;;6214663;23;756;-70
2022/07/31 13:46:18;;;;;;;;;;;22.40;61.90;;;;;;6214666;23;747;-69
2022/07/31 13:48:44;;;;;;;;;;;22.40;62.00;;;;;;6214917;23;1932;-69
2022/07/31 13:51:09;;;;;;;;;;;22.50;61.90;;;;;;6187140;23;1274;-70
2022/07/31 13:53:35;;;;;;;;;;;22.40;61.70;;;;;;6188693;23;1105;-69
2022/07/31 13:56:00;;;;;;;;;;;22.40;61.50;;;;;;6189154;23;1616;-69
2022/07/31 13:58:26;;;;;;;;;;;22.50;60.90;;;;;;6189246;23;790;-70
2022/07/31 14:00:52;;;;;;;;;;;22.50;60.70;;;;;;6214357;23;1286;-71
2022/07/31 14:03:17;;;;;;;;;;;22.50;60.70;;;;;;6188468;23;879;-70
2022/07/31 14:05:43;;;;;;;;;;;22.50;60.30;;;;;;6188581;23;1261;-70
2022/07/31 14:08:08;;;;;;;;;;;22.50;60.40;;;;;;6215687;23;1881;-71
2022/07/31 14:10:34;;;;;;;;;;;22.60;60.70;;;;;;6188638;23;1316;-71
2022/07/31 14:12:59;;;;;;;;;;;22.60;61.00;;;;;;6163935;23;1289;-71
2022/07/31 14:15:24;;;;;;;;;;;22.60;60.40;;;;;;6188955;23;872;-71
2022/07/31 14:17:50;;;;;;;;;;;22.50;60.80;;;;;;6214974;23;1042;-70
2022/07/31 14:20:15;;;;;;;;;;;22.60;59.90;;;;;;6214680;23;1282;-71
2022/07/31 14:22:41;;;;;;;;;;;22.50;59.90;;;;;;6214967;23;824;-71
2022/07/31 14:25:07;;;;;;;;;;;22.60;59.70;;;;;;6188565;23;825;-71
2022/07/31 14:27:33;;;;;;;;;;;22.60;59.50;;;;;;6214775;23;1948;-71
2022/07/31 14:29:59;;;;;;;;;;;22.60;59.10;;;;;;6214088;23;850;-71
2022/07/31 14:32:24;;;;;;;;;;;22.60;58.60;;;;;;6214281;23;1220;-71
2022/07/31 14:34:49;;;;;;;;;;;22.70;57.00;;;;;;6163297;23;1224;-71
2022/07/31 14:37:15;;;;;;;;;;;22.70;57.50;;;;;;6213701;23;812;-71
2022/07/31 14:39:41;;;;;;;;;;;22.70;57.70;;;;;;6214013;23;791;-69
2022/07/31 14:42:06;;;;;;;;;;;22.70;58.50;;;;;;6186457;23;1188;-68
2022/07/31 14:44:32;;;;;;;;;;;22.70;59.20;;;;;;6214150;23;990;-69
2022/07/31 14:46:57;;;;;;;;;;;22.70;58.20;;;;;;6213227;23;1894;-69
2022/07/31 14:49:23;;;;;;;;;;;22.70;58.50;;;;;;6214148;23;816;-69
2022/07/31 14:51:48;;;;;;;;;;;22.60;58.60;;;;;;6213869;23;1162;-68
2022/07/31 14:54:14;;;;;;;;;;;22.60;58.10;;;;;;6214654;23;880;-71
2022/07/31 14:56:39;;;;;;;;;;;22.60;58.10;;;;;;6214572;23;895;-70
2022/07/31 14:59:05;;;;;;;;;;;22.60;58.00;;;;;;6214709;23;879;-72